sensor_id;sensor_type;location;lat;lon;timestamp;pressure;altitude;pressure_sealevel;temperature;humidity
60433;BME280;46286;48.098;11.590;2023-04-01T00:00:44;94305.13;;;6.18;100.00
60433;BME280;46286;48.098;11.590;2023-04-01T00:03:14;94298.34;;;6.12;100.00
60433;BME280;46286;48.098;11.590;2023-04-01T00:05:40;94291.06;;;6.09;100.00
60433;BME280;46286;48.098;11.590;2023-04-01T00:08:05;94293.19;;;6.06;100.00
60433;BME280;46286;48.098;11.590;2023-04-01T00:10:31;94298.41;;;6.06;100.00
60433;BME280;46286;48.098;11.590;2023-04-01T00:12:56;94292.16;;;6.02;100.00
60433;BME280;46286;48.098;11.590;2023-04-01T00:15:22;94293.13;;;6.12;100.00
60433;BME280;46286;48.098;11.590;2023-04-01T00:17:47;94285.28;;;6.12;100.00
60433;BME280;46286;48.098;11.590;2023-04-01T00:20:13;94285.28;;;6.12;100.00
60433;BME280;46286;48.098;11.590;2023-04-01T00:22:40;94280.63;;;6.09;100.00
60433;BME280;46286;48.098;11.590;2023-04-01T00:25:05;94275.38;;;6.09;100.00
60433;BME280;46286;48.098;11.590;2023-04-01T00:27:30;94273.81;;;6.07;100.00
60433;BME280;46286;48.098;11.590;2023-04-01T00:29:56;94265.50;;;6.05;100.00
60433;BME280;46286;48.098;11.590;2023-04-01T00:32:21;94264.47;;;6.01;100.00
60433;BME280;46286;48.098;11.590;2023-04-01T00:34:49;94269.69;;;6.01;100.00
60433;BME280;46286;48.098;11.590;2023-04-01T00:37:15;94264.47;;;6.01;100.00
60433;BME280;46286;48.098;11.590;2023-04-01T00:39:40;94264.47;;;6.01;100.00
60433;BME280;46286;48.098;11.590;2023-04-01T00:42:06;94267.09;;;5.96;100.00
60433;BME280;46286;48.098;11.590;2023-04-01T00:44:32;94270.25;;;5.88;100.00
60433;BME280;46286;48.098;11.590;2023-04-01T00:46:58;94271.28;;;5.92;100.00
60433;BME280;46286;48.098;11.590;2023-04-01T00:49:34;94268.69;;;5.92;100.00
60433;BME280;46286;48.098;11.590;2023-04-01T00:52:01;94263.47;;;5.87;100.00
60433;BME280;46286;48.098;11.590;2023-04-01T00:54:28;94267.59;;;5.93;100.00
60433;BME280;46286;48.098;11.590;2023-04-01T00:59:25;94267.63;;;5.98;100.00
60433;BME280;46286;48.098;11.590;2023-04-01T01:01:51;94265.00;;;5.98;100.00
60433;BME280;46286;48.098;11.590;2023-04-01T01:04:26;94268.13;;;6.00;100.00
60433;BME280;46286;48.098;11.590;2023-04-01T01:06:58;94263.41;;;6.02;100.00
60433;BME280;46286;48.098;11.590;2023-04-01T01:09:29;94268.38;;;6.04;100.00
60433;BME280;46286;48.098;11.590;2023-04-01T01:17:02;94265.97;;;6.13;100.00
60433;BME280;46286;48.098;11.590;2023-04-01T01:22:19;94266.91;;;6.27;100.00
60433;BME280;46286;48.098;11.590;2023-04-01T01:25:09;94269.03;;;6.25;100.00
60433;BME280;46286;48.098;11.590;2023-04-01T01:27:39;94266.38;;;6.30;100.00
60433;BME280;46286;48.098;11.590;2023-04-01T01:30:20;94262.72;;;6.31;100.00
60433;BME280;46286;48.098;11.590;2023-04-01T01:32:55;94264.28;;;6.32;100.00
60433;BME280;46286;48.098;11.590;2023-04-01T01:37:51;94267.63;;;6.38;100.00
60433;BME280;46286;48.098;11.590;2023-04-01T01:40:17;94270.00;;;6.34;100.00
60433;BME280;46286;48.098;11.590;2023-04-01T01:42:44;94270.03;;;6.29;100.00
60433;BME280;46286;48.098;11.590;2023-04-01T01:45:11;94264.31;;;6.27;100.00
60433;BME280;46286;48.098;11.590;2023-04-01T01:47:38;94258.56;;;6.25;100.00
60433;BME280;46286;48.098;11.590;2023-04-01T01:50:05;94248.66;;;6.22;100.00
60433;BME280;46286;48.098;11.590;2023-04-01T01:52:32;94258.56;;;6.25;100.00
60433;BME280;46286;48.098;11.590;2023-04-01T01:54:57;94252.88;;;6.18;100.00
60433;BME280;46286;48.098;11.590;2023-04-01T01:57:28;94252.34;;;6.21;100.00
60433;BME280;46286;48.098;11.590;2023-04-01T01:59:56;94253.94;;;6.17;100.00
60433;BME280;46286;48.098;11.590;2023-04-01T02:02:22;94252.88;;;6.18;100.00
60433;BME280;46286;48.098;11.590;2023-04-01T02:04:49;94252.09;;;6.17;100.00
60433;BME280;46286;48.098;11.590;2023-04-01T02:07:19;94255.69;;;6.27;100.00
60433;BME280;46286;48.098;11.590;2023-04-01T02:09:47;94269.53;;;6.27;100.00
60433;BME280;46286;48.098;11.590;2023-04-01T02:12:13;94264.56;;;6.26;100.00
60433;BME280;46286;48.098;11.590;2023-04-01T02:14:44;94268.00;;;6.21;100.00
60433;BME280;46286;48.098;11.590;2023-04-01T02:17:12;94273.72;;;6.28;100.00
60433;BME280;46286;48.098;11.590;2023-04-01T02:19:46;94277.38;;;6.27;100.00
60433;BME280;46286;48.098;11.590;2023-04-01T02:22:14;94275.25;;;6.29;100.00
60433;BME280;46286;48.098;11.590;2023-04-01T02:24:41;94268.47;;;6.28;100.00
60433;BME280;46286;48.098;11.590;2023-04-01T02:27:08;94275.25;;;6.29;100.00
60433;BME280;46286;48.098;11.590;2023-04-01T02:29:34;94274.19;;;6.30;100.00
60433;BME280;46286;48.098;11.590;2023-04-01T02:31:59;94282.03;;;6.30;100.00
60433;BME280;46286;48.098;11.590;2023-04-01T02:34:25;94274.72;;;6.32;100.00
60433;BME280;46286;48.098;11.590;2023-04-01T02:36:51;94276.81;;;6.30;100.00
60433;BME280;46286;48.098;11.590;2023-04-01T02:39:17;94276.59;;;6.27;100.00
60433;BME280;46286;48.098;11.590;2023-04-01T02:41:43;94266.88;;;6.32;100.00
60433;BME280;46286;48.098;11.590;2023-04-01T02:44:10;94280.47;;;6.29;100.00
60433;BME280;46286;48.098;11.590;2023-04-01T02:46:36;94266.38;;;6.30;100.00
60433;BME280;46286;48.098;11.590;2023-04-01T02:49:01;94274.75;;;6.27;100.00
60433;BME280;46286;48.098;11.590;2023-04-01T02:51:27;94277.38;;;6.22;100.00
60433;BME280;46286;48.098;11.590;2023-04-01T02:53:52;94272.13;;;6.27;100.00
60433;BME280;46286;48.098;11.590;2023-04-01T02:56:18;94271.13;;;6.23;100.00
60433;BME280;46286;48.098;11.590;2023-04-01T02:58:44;94286.78;;;6.23;100.00
60433;BME280;46286;48.098;11.590;2023-04-01T03:01:10;94274.28;;;6.15;100.00
60433;BME280;46286;48.098;11.590;2023-04-01T03:03:35;94273.78;;;6.18;100.00
60433;BME280;46286;48.098;11.590;2023-04-01T03:06:05;94279.00;;;6.18;100.00
60433;BME280;46286;48.098;11.590;2023-04-01T03:08:30;94278.75;;;6.14;100.00
60433;BME280;46286;48.098;11.590;2023-04-01T03:10:56;94282.19;;;6.10;100.00
60433;BME280;46286;48.098;11.590;2023-04-01T03:13:21;94277.97;;;6.14;100.00
60433;BME280;46286;48.098;11.590;2023-04-01T03:15:47;94286.88;;;6.07;100.00
60433;BME280;46286;48.098;11.590;2023-04-01T03:18:12;94298.91;;;6.09;100.00
60433;BME280;46286;48.098;11.590;2023-04-01T03:20:37;94287.91;;;6.12;100.00
60433;BME280;46286;48.098;11.590;2023-04-01T03:23:03;94283.75;;;6.11;100.00
60433;BME280;46286;48.098;11.590;2023-04-01T03:25:28;94282.19;;;6.10;100.00
60433;BME280;46286;48.098;11.590;2023-04-01T03:27:55;94283.28;;;6.03;100.00
60433;BME280;46286;48.098;11.590;2023-04-01T03:30:21;94287.47;;;5.99;100.00
60433;BME280;46286;48.098;11.590;2023-04-01T03:32:46;94293.22;;;5.96;100.00
60433;BME280;46286;48.098;11.590;2023-04-01T03:35:12;94297.91;;;5.99;100.00
60433;BME280;46286;48.098;11.590;2023-04-01T03:37:37;94286.16;;;5.92;100.00
60433;BME280;46286;48.098;11.590;2023-04-01T03:40:03;94285.94;;;5.88;100.00
60433;BME280;46286;48.098;11.590;2023-04-01T03:42:29;94297.44;;;5.82;100.00
60433;BME280;46286;48.098;11.590;2023-04-01T03:44:56;94292.75;;;5.79;100.00
60433;BME280;46286;48.098;11.590;2023-04-01T03:47:21;94300.56;;;5.84;100.00
60433;BME280;46286;48.098;11.590;2023-04-01T03:49:47;94308.66;;;5.82;100.00
60433;BME280;46286;48.098;11.590;2023-04-01T03:52:12;94311.56;;;5.81;100.00
60433;BME280;46286;48.098;11.590;2023-04-01T03:54:38;94306.34;;;5.81;100.00
60433;BME280;46286;48.098;11.590;2023-04-01T03:57:03;94311.56;;;5.76;100.00
60433;BME280;46286;48.098;11.590;2023-04-01T03:59:29;94299.00;;;5.83;100.00
60433;BME280;46286;48.098;11.590;2023-04-01T04:01:54;94308.41;;;5.79;100.00
60433;BME280;46286;48.098;11.590;2023-04-01T04:04:20;94306.88;;;5.72;100.00
60433;BME280;46286;48.098;11.590;2023-04-01T04:06:45;94306.88;;;5.78;100.00
60433;BME280;46286;48.098;11.590;2023-04-01T04:09:11;94305.84;;;5.73;100.00
60433;BME280;46286;48.098;11.590;2023-04-01T04:11:36;94315.25;;;5.69;100.00
60433;BME280;46286;48.098;11.590;2023-04-01T04:14:02;94305.84;;;5.73;100.00
60433;BME280;46286;48.098;11.590;2023-04-01T04:16:27;94308.47;;;5.68;100.00
60433;BME280;46286;48.098;11.590;2023-04-01T04:18:53;94305.88;;;5.63;100.00
60433;BME280;46286;48.098;11.590;2023-04-01T04:21:18;94310.03;;;5.69;100.00
60433;BME280;46286;48.098;11.590;2023-04-01T04:23:44;94313.69;;;5.68;100.00
60433;BME280;46286;48.098;11.590;2023-04-01T04:26:10;94307.91;;;5.71;100.00
60433;BME280;46286;48.098;11.590;2023-04-01T04:28:36;94307.91;;;5.71;100.00
60433;BME280;46286;48.098;11.590;2023-04-01T04:31:02;94308.94;;;5.76;100.00
60433;BME280;46286;48.098;11.590;2023-04-01T04:33:27;94311.28;;;5.77;100.00
60433;BME280;46286;48.098;11.590;2023-04-01T04:35:55;94311.59;;;5.70;100.00
60433;BME280;46286;48.098;11.590;2023-04-01T04:38:21;94309.50;;;5.72;100.00
60433;BME280;46286;48.098;11.590;2023-04-01T04:40:46;94327.25;;;5.70;100.00
60433;BME280;46286;48.098;11.590;2023-04-01T04:43:12;94328.81;;;5.71;100.00
60433;BME280;46286;48.098;11.590;2023-04-01T04:45:38;94329.28;;;5.79;100.00
60433;BME280;46286;48.098;11.590;2023-04-01T04:48:04;94327.22;;;5.76;100.00
60433;BME280;46286;48.098;11.590;2023-04-01T04:50:29;94331.94;;;5.73;100.00
60433;BME280;46286;48.098;11.590;2023-04-01T04:52:55;94332.97;;;5.78;100.00
60433;BME280;46286;48.098;11.590;2023-04-01T04:55:20;94334.50;;;5.84;100.00
60433;BME280;46286;48.098;11.590;2023-04-01T04:57:46;94331.34;;;5.87;100.00
60433;BME280;46286;48.098;11.590;2023-04-01T05:00:11;94339.19;;;5.82;100.00
60433;BME280;46286;48.098;11.590;2023-04-01T05:02:37;94332.94;;;5.88;100.00
60433;BME280;46286;48.098;11.590;2023-04-01T05:05:03;94337.34;;;5.87;100.00
60433;BME280;46286;48.098;11.590;2023-04-01T05:07:29;94329.19;;;6.10;100.00
60433;BME280;46286;48.098;11.590;2023-04-01T05:09:55;94332.78;;;6.19;100.00
60433;BME280;46286;48.098;11.590;2023-04-01T05:12:20;94336.50;;;6.07;100.00
60433;BME280;46286;48.098;11.590;2023-04-01T05:14:45;94333.88;;;6.13;100.00
60433;BME280;46286;48.098;11.590;2023-04-01T05:17:12;94334.13;;;6.16;100.00
60433;BME280;46286;48.098;11.590;2023-04-01T05:19:37;94330.19;;;6.19;100.00
60433;BME280;46286;48.098;11.590;2023-04-01T05:22:03;94326.25;;;6.21;100.00
60433;BME280;46286;48.098;11.590;2023-04-01T05:24:28;94327.56;;;6.19;100.00
60433;BME280;46286;48.098;11.590;2023-04-01T05:26:54;94330.72;;;6.21;100.00
60433;BME280;46286;48.098;11.590;2023-04-01T05:29:21;94326.50;;;6.25;100.00
60433;BME280;46286;48.098;11.590;2023-04-01T05:31:46;94327.28;;;6.26;100.00
60433;BME280;46286;48.098;11.590;2023-04-01T05:34:12;94320.72;;;6.28;100.00
60433;BME280;46286;48.098;11.590;2023-04-01T05:36:38;94331.72;;;6.25;100.00
60433;BME280;46286;48.098;11.590;2023-04-01T05:39:03;94320.19;;;6.31;100.00
60433;BME280;46286;48.098;11.590;2023-04-01T05:41:29;94320.72;;;6.28;100.00
60433;BME280;46286;48.098;11.590;2023-04-01T05:43:54;94325.88;;;6.38;100.00
60433;BME280;46286;48.098;11.590;2023-04-01T05:46:20;94336.56;;;6.42;100.00
60433;BME280;46286;48.098;11.590;2023-04-01T05:48:45;94322.75;;;6.36;100.00
60433;BME280;46286;48.098;11.590;2023-04-01T05:51:12;94339.47;;;6.40;100.00
60433;BME280;46286;48.098;11.590;2023-04-01T05:53:38;94336.81;;;6.46;100.00
60433;BME280;46286;48.098;11.590;2023-04-01T05:56:03;94343.63;;;6.47;100.00
60433;BME280;46286;48.098;11.590;2023-04-01T05:58:29;94335.22;;;6.50;100.00
60433;BME280;46286;48.098;11.590;2023-04-01T06:01:02;94328.41;;;6.54;100.00
60433;BME280;46286;48.098;11.590;2023-04-01T06:03:27;94325.53;;;6.55;100.00
60433;BME280;46286;48.098;11.590;2023-04-01T06:05:53;94332.53;;;6.60;100.00
60433;BME280;46286;48.098;11.590;2023-04-01T06:08:18;94332.00;;;6.63;100.00
60433;BME280;46286;48.098;11.590;2023-04-01T06:10:55;94330.66;;;6.66;100.00
60433;BME280;46286;48.098;11.590;2023-04-01T06:13:42;94326.22;;;6.66;100.00
60433;BME280;46286;48.098;11.590;2023-04-01T06:26:14;94331.34;;;6.76;100.00
60433;BME280;46286;48.098;11.590;2023-04-01T06:28:58;94341.81;;;6.76;100.00
60433;BME280;46286;48.098;11.590;2023-04-01T06:51:28;94338.47;;;7.05;100.00
60433;BME280;46286;48.098;11.590;2023-04-01T06:54:05;94341.69;;;6.92;100.00
60433;BME280;46286;48.098;11.590;2023-04-01T06:56:34;94343.94;;;7.04;100.00
60433;BME280;46286;48.098;11.590;2023-04-01T06:59:05;94336.34;;;7.07;100.00
60433;BME280;46286;48.098;11.590;2023-04-01T07:01:41;94346.16;;;7.21;100.00
60433;BME280;46286;48.098;11.590;2023-04-01T07:04:15;94333.38;;;7.43;100.00
60433;BME280;46286;48.098;11.590;2023-04-01T07:06:52;94361.59;;;7.52;100.00
60433;BME280;46286;48.098;11.590;2023-04-01T07:09:24;94356.78;;;7.59;100.00
60433;BME280;46286;48.098;11.590;2023-04-01T07:11:53;94353.63;;;7.62;100.00
60433;BME280;46286;48.098;11.590;2023-04-01T07:14:32;94357.25;;;7.66;100.00
60433;BME280;46286;48.098;11.590;2023-04-01T07:17:05;94354.63;;;7.66;100.00
60433;BME280;46286;48.098;11.590;2023-04-01T07:19:39;94354.56;;;7.71;100.00
60433;BME280;46286;48.098;11.590;2023-04-01T07:25:24;94346.09;;;7.79;100.00
60433;BME280;46286;48.098;11.590;2023-04-01T07:27:53;94354.56;;;7.71;100.00
60433;BME280;46286;48.098;11.590;2023-04-01T07:30:23;94342.41;;;7.80;100.00
60433;BME280;46286;48.098;11.590;2023-04-01T07:36:12;94335.16;;;7.72;100.00
60433;BME280;46286;48.098;11.590;2023-04-01T07:41:13;94340.06;;;7.79;100.00
60433;BME280;46286;48.098;11.590;2023-04-01T07:43:49;94345.28;;;8.03;100.00
60433;BME280;46286;48.098;11.590;2023-04-01T07:49:29;94344.63;;;7.92;100.00
60433;BME280;46286;48.098;11.590;2023-04-01T07:55:00;94348.25;;;8.15;100.00
60433;BME280;46286;48.098;11.590;2023-04-01T08:00:19;94353.78;;;8.33;100.00
60433;BME280;46286;48.098;11.590;2023-04-01T08:03:05;94355.78;;;8.41;100.00
60433;BME280;46286;48.098;11.590;2023-04-01T08:05:54;94365.03;;;8.58;100.00
60433;BME280;46286;48.098;11.590;2023-04-01T08:10:59;94363.91;;;8.64;100.00
60433;BME280;46286;48.098;11.590;2023-04-01T08:13:46;94368.56;;;8.67;100.00
60433;BME280;46286;48.098;11.590;2023-04-01T08:19:30;94357.66;;;8.60;100.00
60433;BME280;46286;48.098;11.590;2023-04-01T08:22:00;94354.69;;;8.47;100.00
60433;BME280;46286;48.098;11.590;2023-04-01T08:24:40;94352.41;;;8.60;100.00
60433;BME280;46286;48.098;11.590;2023-04-01T08:27:16;94359.66;;;8.68;100.00
60433;BME280;46286;48.098;11.590;2023-04-01T08:29:50;94349.22;;;8.63;100.00
60433;BME280;46286;48.098;11.590;2023-04-01T08:32:22;94347.06;;;8.84;100.00
60433;BME280;46286;48.098;11.590;2023-04-01T08:35:06;94341.66;;;8.94;100.00
60433;BME280;46286;48.098;11.590;2023-04-01T08:37:36;94339.56;;;9.10;100.00
60433;BME280;46286;48.098;11.590;2023-04-01T08:42:58;94342.94;;;9.30;100.00
60433;BME280;46286;48.098;11.590;2023-04-01T08:45:48;94334.06;;;9.26;100.00
60433;BME280;46286;48.098;11.590;2023-04-01T08:54:05;94329.69;;;9.35;100.00
60433;BME280;46286;48.098;11.590;2023-04-01T08:56:47;94339.03;;;9.55;100.00
60433;BME280;46286;48.098;11.590;2023-04-01T08:59:37;94341.97;;;9.53;95.42
60433;BME280;46286;48.098;11.590;2023-04-01T09:05:12;94337.78;;;9.66;97.70
60433;BME280;46286;48.098;11.590;2023-04-01T09:14:06;94332.25;;;9.96;92.30
60433;BME280;46286;48.098;11.590;2023-04-01T09:27:28;94334.19;;;10.77;83.99
60433;BME280;46286;48.098;11.590;2023-04-01T09:35:48;94322.41;;;10.01;85.67
60433;BME280;46286;48.098;11.590;2023-04-01T09:38:22;94309.81;;;10.12;85.09
60433;BME280;46286;48.098;11.590;2023-04-01T09:41:10;94316.41;;;10.23;82.61
60433;BME280;46286;48.098;11.590;2023-04-01T09:43:51;94310.41;;;10.23;85.96
60433;BME280;46286;48.098;11.590;2023-04-01T09:51:40;94296.19;;;10.83;80.47
60433;BME280;46286;48.098;11.590;2023-04-01T09:54:22;94295.06;;;11.07;77.42
60433;BME280;46286;48.098;11.590;2023-04-01T10:05:01;94292.41;;;11.30;75.74
60433;BME280;46286;48.098;11.590;2023-04-01T10:07:46;94280.09;;;11.56;75.93
60433;BME280;46286;48.098;11.590;2023-04-01T10:10:56;94293.50;;;11.06;73.79
60433;BME280;46286;48.098;11.590;2023-04-01T10:16:37;94285.50;;;11.11;77.90
60433;BME280;46286;48.098;11.590;2023-04-01T10:28:09;94288.81;;;10.71;77.57
60433;BME280;46286;48.098;11.590;2023-04-01T10:34:27;94285.31;;;11.07;75.78
60433;BME280;46286;48.098;11.590;2023-04-01T10:37:13;94284.88;;;11.14;77.56
60433;BME280;46286;48.098;11.590;2023-04-01T10:45:28;94288.50;;;10.73;77.34
60433;BME280;46286;48.098;11.590;2023-04-01T10:48:12;94280.41;;;10.83;81.81
60433;BME280;46286;48.098;11.590;2023-04-01T10:56:39;94292.81;;;10.91;82.35
60433;BME280;46286;48.098;11.590;2023-04-01T11:22:03;94298.72;;;10.15;98.05
60433;BME280;46286;48.098;11.590;2023-04-01T11:35:59;94315.53;;;10.42;100.00
60433;BME280;46286;48.098;11.590;2023-04-01T11:41:26;94325.38;;;10.36;100.00
60433;BME280;46286;48.098;11.590;2023-04-01T11:49:33;94346.63;;;9.57;100.00
60433;BME280;46286;48.098;11.590;2023-04-01T11:54:48;94358.22;;;9.09;100.00
60433;BME280;46286;48.098;11.590;2023-04-01T12:03:29;94383.94;;;8.11;100.00
60433;BME280;46286;48.098;11.590;2023-04-01T12:05:54;94360.63;;;7.91;100.00
60433;BME280;46286;48.098;11.590;2023-04-01T12:11:12;94360.41;;;7.63;100.00
60433;BME280;46286;48.098;11.590;2023-04-01T12:13:59;94374.59;;;7.57;100.00
60433;BME280;46286;48.098;11.590;2023-04-01T12:16:40;94365.69;;;7.58;100.00
60433;BME280;46286;48.098;11.590;2023-04-01T12:19:11;94373.50;;;7.63;100.00
60433;BME280;46286;48.098;11.590;2023-04-01T12:22:38;94374.59;;;7.57;100.00
60433;BME280;46286;48.098;11.590;2023-04-01T12:30:34;94375.72;;;7.51;100.00
60433;BME280;46286;48.098;11.590;2023-04-01T12:33:42;94383.53;;;7.56;100.00
60433;BME280;46286;48.098;11.590;2023-04-01T13:15:23;94369.88;;;7.05;100.00
60433;BME280;46286;48.098;11.590;2023-04-01T13:18:18;94369.34;;;7.03;100.00
60433;BME280;46286;48.098;11.590;2023-04-01T13:21:04;94384.44;;;7.11;100.00
60433;BME280;46286;48.098;11.590;2023-04-01T13:23:44;94381.31;;;7.09;100.00
60433;BME280;46286;48.098;11.590;2023-04-01T13:31:34;94389.22;;;7.04;100.00
60433;BME280;46286;48.098;11.590;2023-04-01T13:34:45;94388.19;;;7.00;100.00
60433;BME280;46286;48.098;11.590;2023-04-01T13:37:40;94390.28;;;6.98;100.00
60433;BME280;46286;48.098;11.590;2023-04-01T13:43:10;94390.72;;;6.81;100.00
60433;BME280;46286;48.098;11.590;2023-04-01T13:51:19;94394.09;;;6.82;100.00
60433;BME280;46286;48.098;11.590;2023-04-01T13:54:00;94377.81;;;6.90;100.00
60433;BME280;46286;48.098;11.590;2023-04-01T13:59:53;94391.09;;;6.99;100.00
60433;BME280;46286;48.098;11.590;2023-04-01T14:02:38;94392.84;;;7.08;100.00
60433;BME280;46286;48.098;11.590;2023-04-01T14:13:04;94400.06;;;7.22;100.00
60433;BME280;46286;48.098;11.590;2023-04-01T14:15:46;94385.13;;;7.22;100.00
60433;BME280;46286;48.098;11.590;2023-04-01T14:21:08;94390.25;;;7.08;100.00
60433;BME280;46286;48.098;11.590;2023-04-01T14:35:52;94395.03;;;7.25;100.00
60433;BME280;46286;48.098;11.590;2023-04-01T14:41:37;94399.75;;;7.28;100.00
60433;BME280;46286;48.098;11.590;2023-04-01T14:44:18;94401.00;;;7.31;100.00
60433;BME280;46286;48.098;11.590;2023-04-01T14:49:36;94388.47;;;7.28;100.00
60433;BME280;46286;48.098;11.590;2023-04-01T14:52:13;94397.72;;;7.20;100.00
60433;BME280;46286;48.098;11.590;2023-04-01T14:54:44;94392.25;;;7.17;100.00
60433;BME280;46286;48.098;11.590;2023-04-01T14:59:52;94406.44;;;7.10;100.00
60433;BME280;46286;48.098;11.590;2023-04-01T15:08:09;94392.25;;;7.17;100.00
60433;BME280;46286;48.098;11.590;2023-04-01T15:32:04;94402.13;;;7.54;100.00
60433;BME280;46286;48.098;11.590;2023-04-01T15:35:00;94403.38;;;7.62;100.00
60433;BME280;46286;48.098;11.590;2023-04-01T15:37:44;94418.19;;;7.72;100.00
60433;BME280;46286;48.098;11.590;2023-04-01T15:40:37;94430.44;;;7.76;100.00
60433;BME280;46286;48.098;11.590;2023-04-01T15:43:15;94407.38;;;7.78;100.00
60433;BME280;46286;48.098;11.590;2023-04-01T15:51:52;94409.34;;;7.92;100.00
60433;BME280;46286;48.098;11.590;2023-04-01T15:57:09;94414.50;;;7.97;100.00
60433;BME280;46286;48.098;11.590;2023-04-01T16:02:48;94411.78;;;8.07;100.00
60433;BME280;46286;48.098;11.590;2023-04-01T16:05:32;94413.56;;;8.12;100.00
60433;BME280;46286;48.098;11.590;2023-04-01T16:19:11;94415.63;;;8.15;100.00
60433;BME280;46286;48.098;11.590;2023-04-01T16:21:44;94428.44;;;8.17;100.00
60433;BME280;46286;48.098;11.590;2023-04-01T16:24:19;94424.25;;;8.15;100.00
60433;BME280;46286;48.098;11.590;2023-04-01T16:26:52;94407.50;;;8.17;100.00
60433;BME280;46286;48.098;11.590;2023-04-01T16:32:27;94415.63;;;8.15;100.00
60433;BME280;46286;48.098;11.590;2023-04-01T16:37:43;94412.34;;;8.04;100.00
60433;BME280;46286;48.098;11.590;2023-04-01T16:40:13;94411.84;;;8.02;100.00
60433;BME280;46286;48.098;11.590;2023-04-01T16:42:51;94418.13;;;8.01;100.00
60433;BME280;46286;48.098;11.590;2023-04-01T16:45:41;94425.00;;;7.97;100.00
60433;BME280;46286;48.098;11.590;2023-04-01T16:48:13;94423.72;;;7.94;100.00
60433;BME280;46286;48.098;11.590;2023-04-01T16:50:55;94421.16;;;7.89;100.00
60433;BME280;46286;48.098;11.590;2023-04-01T16:53:43;94436.59;;;7.91;100.00
60433;BME280;46286;48.098;11.590;2023-04-01T16:56:22;94436.16;;;7.84;100.00
60433;BME280;46286;48.098;11.590;2023-04-01T16:59:02;94436.69;;;7.80;100.00
60433;BME280;46286;48.098;11.590;2023-04-01T17:01:53;94446.16;;;7.76;100.00
60433;BME280;46286;48.098;11.590;2023-04-01T17:04:34;94439.59;;;7.79;100.00
60433;BME280;46286;48.098;11.590;2023-04-01T17:07:15;94448.75;;;7.82;100.00
60433;BME280;46286;48.098;11.590;2023-04-01T17:12:39;94447.19;;;7.80;100.00
60433;BME280;46286;48.098;11.590;2023-04-01T17:15:21;94454.50;;;7.78;100.00
60433;BME280;46286;48.098;11.590;2023-04-01T17:20:50;94451.84;;;7.84;100.00
60433;BME280;46286;48.098;11.590;2023-04-01T17:23:34;94452.19;;;7.77;100.00
60433;BME280;46286;48.098;11.590;2023-04-01T17:28:33;94471.81;;;7.79;100.00
60433;BME280;46286;48.098;11.590;2023-04-01T17:39:35;94473.47;;;7.70;100.00
60433;BME280;46286;48.098;11.590;2023-04-01T17:42:11;94470.78;;;7.75;100.00
60433;BME280;46286;48.098;11.590;2023-04-01T17:44:49;94468.78;;;7.67;100.00
60433;BME280;46286;48.098;11.590;2023-04-01T17:47:31;94477.59;;;7.76;100.00
60433;BME280;46286;48.098;11.590;2023-04-01T18:01:12;94482.84;;;7.76;100.00
60433;BME280;46286;48.098;11.590;2023-04-01T18:07:30;94473.50;;;7.65;100.00
60433;BME280;46286;48.098;11.590;2023-04-01T18:10:28;94476.38;;;7.93;100.00
60433;BME280;46286;48.098;11.590;2023-04-01T18:16:06;94480.72;;;7.78;100.00
60433;BME280;46286;48.098;11.590;2023-04-01T18:18:35;94492.09;;;7.69;100.00
60433;BME280;46286;48.098;11.590;2023-04-01T18:26:10;94511.94;;;7.40;100.00
60433;BME280;46286;48.098;11.590;2023-04-01T18:28:53;94519.34;;;7.28;100.00
60433;BME280;46286;48.098;11.590;2023-04-01T18:31:23;94516.22;;;7.26;100.00
60433;BME280;46286;48.098;11.590;2023-04-01T18:33:59;94522.00;;;7.23;100.00
60433;BME280;46286;48.098;11.590;2023-04-01T18:39:35;94528.38;;;7.06;100.00
60433;BME280;46286;48.098;11.590;2023-04-01T18:45:01;94533.59;;;7.06;100.00
60433;BME280;46286;48.098;11.590;2023-04-01T18:47:42;94525.31;;;6.94;100.00
60433;BME280;46286;48.098;11.590;2023-04-01T18:53:09;94532.16;;;6.85;100.00
60433;BME280;46286;48.098;11.590;2023-04-01T18:55:42;94533.22;;;6.79;100.00
60433;BME280;46286;48.098;11.590;2023-04-01T18:58:35;94529.09;;;6.72;100.00
60433;BME280;46286;48.098;11.590;2023-04-01T19:06:59;94546.31;;;6.73;100.00
60433;BME280;46286;48.098;11.590;2023-04-01T19:20:20;94548.38;;;6.76;100.00
60433;BME280;46286;48.098;11.590;2023-04-01T19:23:34;94542.66;;;6.80;100.00
60433;BME280;46286;48.098;11.590;2023-04-01T19:26:10;94544.22;;;6.75;100.00
60433;BME280;46286;48.098;11.590;2023-04-01T19:29:02;94542.91;;;6.78;100.00
60433;BME280;46286;48.098;11.590;2023-04-01T19:34:26;94550.94;;;6.97;100.00
60433;BME280;46286;48.098;11.590;2023-04-01T19:36:59;94556.72;;;6.84;100.00
60433;BME280;46286;48.098;11.590;2023-04-01T19:39:53;94566.69;;;6.82;100.00
60433;BME280;46286;48.098;11.590;2023-04-01T19:45:52;94572.41;;;6.84;100.00
60433;BME280;46286;48.098;11.590;2023-04-01T19:50:53;94578.50;;;6.74;100.00
60433;BME280;46286;48.098;11.590;2023-04-01T19:53:54;94579.00;;;6.71;100.00
60433;BME280;46286;48.098;11.590;2023-04-01T19:56:24;94584.50;;;6.74;100.00
60433;BME280;46286;48.098;11.590;2023-04-01T20:01:49;94590.81;;;6.68;100.00
60433;BME280;46286;48.098;11.590;2023-04-01T20:04:25;94588.69;;;6.70;100.00
60433;BME280;46286;48.098;11.590;2023-04-01T20:07:01;94587.41;;;6.63;100.00
60433;BME280;46286;48.098;11.590;2023-04-01T20:15:02;94589.78;;;6.54;100.00
60433;BME280;46286;48.098;11.590;2023-04-01T20:17:38;94594.53;;;6.47;100.00
60433;BME280;46286;48.098;11.590;2023-04-01T20:25:25;94590.34;;;6.51;100.00
60433;BME280;46286;48.098;11.590;2023-04-01T20:27:58;94596.09;;;6.37;100.00
60433;BME280;46286;48.098;11.590;2023-04-01T20:30:33;94596.63;;;6.34;100.00